sensor_id;sensor_type;location;lat;lon;timestamp;temperature;humidity
9544;DHT22;30418;51.45933468;7.33152330;2023-03-15T00:01:03;8.50;55.70
9544;DHT22;30418;51.45933468;7.33152330;2023-03-15T00:03:34;8.60;55.70
9544;DHT22;30418;51.45933468;7.33152330;2023-03-15T00:06:04;8.50;55.70
9544;DHT22;30418;51.45933468;7.33152330;2023-03-15T00:08:33;8.60;55.90
9544;DHT22;30418;51.45933468;7.33152330;2023-03-15T00:11:02;8.60;56.10
9544;DHT22;30418;51.45933468;7.33152330;2023-03-15T00:13:32;8.50;56.10
9544;DHT22;30418;51.45933468;7.33152330;2023-03-15T00:16:01;8.50;56.00
9544;DHT22;30418;51.45933468;7.33152330;2023-03-15T00:18:30;8.50;55.90
9544;DHT22;30418;51.45933468;7.33152330;2023-03-15T00:20:59;8.50;55.80
9544;DHT22;30418;51.45933468;7.33152330;2023-03-15T00:23:28;8.40;55.70
9544;DHT22;30418;51.45933468;7.33152330;2023-03-15T00:25:57;8.40;55.80
9544;DHT22;30418;51.45933468;7.33152330;2023-03-15T00:28:26;8.40;55.90
9544;DHT22;30418;51.45933468;7.33152330;2023-03-15T00:31:16;8.30;56.00
9544;DHT22;30418;51.45933468;7.33152330;2023-03-15T00:33:47;8.30;56.20
9544;DHT22;30418;51.45933468;7.33152330;2023-03-15T00:36:22;8.20;56.30
9544;DHT22;30418;51.45933468;7.33152330;2023-03-15T00:38:54;8.20;56.40
9544;DHT22;30418;51.45933468;7.33152330;2023-03-15T00:41:23;8.20;56.50
9544;DHT22;30418;51.45933468;7.33152330;2023-03-15T00:43:52;8.20;56.60
9544;DHT22;30418;51.45933468;7.33152330;2023-03-15T00:46:22;8.20;56.80
9544;DHT22;30418;51.45933468;7.33152330;2023-03-15T00:48:51;8.20;56.80
9544;DHT22;30418;51.45933468;7.33152330;2023-03-15T00:51:21;8.20;57.00
9544;DHT22;30418;51.45933468;7.33152330;2023-03-15T00:53:52;8.20;57.00
9544;DHT22;30418;51.45933468;7.33152330;2023-03-15T00:56:23;8.20;57.00
9544;DHT22;30418;51.45933468;7.33152330;2023-03-15T00:58:53;8.20;57.70
9544;DHT22;30418;51.45933468;7.33152330;2023-03-15T01:01:24;8.20;57.20
9544;DHT22;30418;51.45933468;7.33152330;2023-03-15T01:03:55;8.20;57.20
9544;DHT22;30418;51.45933468;7.33152330;2023-03-15T01:06:26;8.10;57.30
9544;DHT22;30418;51.45933468;7.33152330;2023-03-15T01:08:58;8.20;57.40
9544;DHT22;30418;51.45933468;7.33152330;2023-03-15T01:11:28;8.10;57.40
9544;DHT22;30418;51.45933468;7.33152330;2023-03-15T01:13:58;8.10;57.40
9544;DHT22;30418;51.45933468;7.33152330;2023-03-15T01:16:28;8.10;57.60
9544;DHT22;30418;51.45933468;7.33152330;2023-03-15T01:18:57;8.10;57.70
9544;DHT22;30418;51.45933468;7.33152330;2023-03-15T01:21:26;8.10;57.70
9544;DHT22;30418;51.45933468;7.33152330;2023-03-15T01:23:54;8.10;57.80
9544;DHT22;30418;51.45933468;7.33152330;2023-03-15T01:26:23;8.00;57.80
9544;DHT22;30418;51.45933468;7.33152330;2023-03-15T01:28:52;8.00;58.00
9544;DHT22;30418;51.45933468;7.33152330;2023-03-15T01:31:22;8.00;58.00
9544;DHT22;30418;51.45933468;7.33152330;2023-03-15T01:33:53;7.90;58.30
9544;DHT22;30418;51.45933468;7.33152330;2023-03-15T01:36:22;7.90;58.30
9544;DHT22;30418;51.45933468;7.33152330;2023-03-15T01:38:52;7.90;58.40
9544;DHT22;30418;51.45933468;7.33152330;2023-03-15T01:41:30;7.90;58.50
9544;DHT22;30418;51.45933468;7.33152330;2023-03-15T01:43:59;7.90;58.60
9544;DHT22;30418;51.45933468;7.33152330;2023-03-15T01:46:29;7.80;58.70
9544;DHT22;30418;51.45933468;7.33152330;2023-03-15T01:49:13;7.90;58.90
9544;DHT22;30418;51.45933468;7.33152330;2023-03-15T01:51:47;7.80;59.00
9544;DHT22;30418;51.45933468;7.33152330;2023-03-15T01:54:22;7.80;59.00
9544;DHT22;30418;51.45933468;7.33152330;2023-03-15T01:56:57;7.80;59.10
9544;DHT22;30418;51.45933468;7.33152330;2023-03-15T01:59:31;7.90;59.20
9544;DHT22;30418;51.45933468;7.33152330;2023-03-15T02:02:02;7.90;59.20
9544;DHT22;30418;51.45933468;7.33152330;2023-03-15T02:04:35;7.90;59.20
9544;DHT22;30418;51.45933468;7.33152330;2023-03-15T02:07:07;7.90;59.30
9544;DHT22;30418;51.45933468;7.33152330;2023-03-15T02:09:43;7.80;59.20
9544;DHT22;30418;51.45933468;7.33152330;2023-03-15T02:12:16;7.90;59.60
9544;DHT22;30418;51.45933468;7.33152330;2023-03-15T02:14:48;7.80;59.20
9544;DHT22;30418;51.45933468;7.33152330;2023-03-15T02:17:22;7.80;59.30
9544;DHT22;30418;51.45933468;7.33152330;2023-03-15T02:20:04;7.80;59.30
9544;DHT22;30418;51.45933468;7.33152330;2023-03-15T02:22:48;7.80;59.40
9544;DHT22;30418;51.45933468;7.33152330;2023-03-15T02:25:25;7.70;59.40
9544;DHT22;30418;51.45933468;7.33152330;2023-03-15T02:28:03;7.80;59.50
9544;DHT22;30418;51.45933468;7.33152330;2023-03-15T02:30:34;7.70;59.50
9544;DHT22;30418;51.45933468;7.33152330;2023-03-15T02:33:06;7.70;59.50
9544;DHT22;30418;51.45933468;7.33152330;2023-03-15T02:35:36;7.70;59.50
9544;DHT22;30418;51.45933468;7.33152330;2023-03-15T02:38:04;7.70;59.50
9544;DHT22;30418;51.45933468;7.33152330;2023-03-15T02:40:33;7.70;59.50
9544;DHT22;30418;51.45933468;7.33152330;2023-03-15T02:43:05;7.60;59.40
9544;DHT22;30418;51.45933468;7.33152330;2023-03-15T02:45:36;7.60;59.60
9544;DHT22;30418;51.45933468;7.33152330;2023-03-15T02:48:06;7.60;59.60
9544;DHT22;30418;51.45933468;7.33152330;2023-03-15T02:50:36;7.60;59.70
9544;DHT22;30418;51.45933468;7.33152330;2023-03-15T02:53:05;7.60;59.90
9544;DHT22;30418;51.45933468;7.33152330;2023-03-15T02:55:35;7.60;59.90
9544;DHT22;30418;51.45933468;7.33152330;2023-03-15T02:58:05;7.60;59.90
9544;DHT22;30418;51.45933468;7.33152330;2023-03-15T03:00:34;7.60;60.00
9544;DHT22;30418;51.45933468;7.33152330;2023-03-15T03:03:03;7.60;60.00
9544;DHT22;30418;51.45933468;7.33152330;2023-03-15T03:05:31;7.60;60.10
9544;DHT22;30418;51.45933468;7.33152330;2023-03-15T03:08:00;7.60;60.20
9544;DHT22;30418;51.45933468;7.33152330;2023-03-15T03:10:29;7.60;60.20
9544;DHT22;30418;51.45933468;7.33152330;2023-03-15T03:12:59;7.60;60.30
9544;DHT22;30418;51.45933468;7.33152330;2023-03-15T03:15:38;7.60;60.30
9544;DHT22;30418;51.45933468;7.33152330;2023-03-15T03:18:07;7.60;60.40
9544;DHT22;30418;51.45933468;7.33152330;2023-03-15T03:20:36;7.60;60.50
9544;DHT22;30418;51.45933468;7.33152330;2023-03-15T03:23:05;7.60;60.50
9544;DHT22;30418;51.45933468;7.33152330;2023-03-15T03:25:33;7.60;60.50
9544;DHT22;30418;51.45933468;7.33152330;2023-03-15T03:28:02;7.60;60.50
9544;DHT22;30418;51.45933468;7.33152330;2023-03-15T03:30:34;7.60;60.50
9544;DHT22;30418;51.45933468;7.33152330;2023-03-15T03:33:04;7.60;60.50
9544;DHT22;30418;51.45933468;7.33152330;2023-03-15T03:35:33;7.60;60.60
9544;DHT22;30418;51.45933468;7.33152330;2023-03-15T03:38:01;7.60;60.50
9544;DHT22;30418;51.45933468;7.33152330;2023-03-15T03:40:35;7.60;61.40
9544;DHT22;30418;51.45933468;7.33152330;2023-03-15T03:43:06;7.60;60.50
9544;DHT22;30418;51.45933468;7.33152330;2023-03-15T03:45:35;7.60;60.60
9544;DHT22;30418;51.45933468;7.33152330;2023-03-15T03:48:06;7.60;60.70
9544;DHT22;30418;51.45933468;7.33152330;2023-03-15T03:50:34;7.70;60.90
9544;DHT22;30418;51.45933468;7.33152330;2023-03-15T03:53:03;7.60;60.60
9544;DHT22;30418;51.45933468;7.33152330;2023-03-15T03:55:34;7.60;60.60
9544;DHT22;30418;51.45933468;7.33152330;2023-03-15T03:58:02;7.60;60.50
9544;DHT22;30418;51.45933468;7.33152330;2023-03-15T04:00:57;7.70;60.60
9544;DHT22;30418;51.45933468;7.33152330;2023-03-15T04:03:31;7.70;60.60
9544;DHT22;30418;51.45933468;7.33152330;2023-03-15T04:06:07;7.70;60.60
9544;DHT22;30418;51.45933468;7.33152330;2023-03-15T04:08:40;7.60;60.50
9544;DHT22;30418;51.45933468;7.33152330;2023-03-15T04:11:13;7.60;60.50
9544;DHT22;30418;51.45933468;7.33152330;2023-03-15T04:13:48;7.60;60.50
9544;DHT22;30418;51.45933468;7.33152330;2023-03-15T04:16:17;7.60;60.50
9544;DHT22;30418;51.45933468;7.33152330;2023-03-15T04:18:59;7.60;60.60
9544;DHT22;30418;51.45933468;7.33152330;2023-03-15T04:21:30;7.50;60.70
9544;DHT22;30418;51.45933468;7.33152330;2023-03-15T04:24:32;7.50;60.80
9544;DHT22;30418;51.45933468;7.33152330;2023-03-15T04:27:01;7.50;60.90
9544;DHT22;30418;51.45933468;7.33152330;2023-03-15T04:29:42;7.40;60.90
9544;DHT22;30418;51.45933468;7.33152330;2023-03-15T04:32:33;7.40;61.00
9544;DHT22;30418;51.45933468;7.33152330;2023-03-15T04:35:33;7.40;61.00
9544;DHT22;30418;51.45933468;7.33152330;2023-03-15T04:38:18;7.40;61.00
9544;DHT22;30418;51.45933468;7.33152330;2023-03-15T04:40:58;7.40;61.00
9544;DHT22;30418;51.45933468;7.33152330;2023-03-15T04:43:40;7.40;61.20
9544;DHT22;30418;51.45933468;7.33152330;2023-03-15T04:46:34;7.40;61.30
9544;DHT22;30418;51.45933468;7.33152330;2023-03-15T04:49:13;7.30;61.20
9544;DHT22;30418;51.45933468;7.33152330;2023-03-15T04:51:53;7.30;61.30
9544;DHT22;30418;51.45933468;7.33152330;2023-03-15T04:54:40;7.30;61.30
9544;DHT22;30418;51.45933468;7.33152330;2023-03-15T04:57:20;7.30;61.40
9544;DHT22;30418;51.45933468;7.33152330;2023-03-15T05:00:03;7.30;61.50
9544;DHT22;30418;51.45933468;7.33152330;2023-03-15T05:02:40;7.30;61.60
9544;DHT22;30418;51.45933468;7.33152330;2023-03-15T05:05:17;7.40;61.60
9544;DHT22;30418;51.45933468;7.33152330;2023-03-15T05:07:57;7.40;61.60
9544;DHT22;30418;51.45933468;7.33152330;2023-03-15T05:10:49;7.40;61.60
9544;DHT22;30418;51.45933468;7.33152330;2023-03-15T05:13:44;7.40;61.50
9544;DHT22;30418;51.45933468;7.33152330;2023-03-15T05:16:32;7.40;61.50
9544;DHT22;30418;51.45933468;7.33152330;2023-03-15T05:19:19;7.40;61.50
9544;DHT22;30418;51.45933468;7.33152330;2023-03-15T05:22:09;7.40;61.50
9544;DHT22;30418;51.45933468;7.33152330;2023-03-15T05:24:51;7.40;61.70
9544;DHT22;30418;51.45933468;7.33152330;2023-03-15T05:27:37;7.40;61.70
9544;DHT22;30418;51.45933468;7.33152330;2023-03-15T05:30:18;7.40;61.60
9544;DHT22;30418;51.45933468;7.33152330;2023-03-15T05:32:59;7.40;61.50
9544;DHT22;30418;51.45933468;7.33152330;2023-03-15T05:35:50;7.40;62.40
9544;DHT22;30418;51.45933468;7.33152330;2023-03-15T05:38:58;7.40;61.50
9544;DHT22;30418;51.45933468;7.33152330;2023-03-15T05:41:52;7.40;61.50
9544;DHT22;30418;51.45933468;7.33152330;2023-03-15T05:44:47;7.30;61.50
9544;DHT22;30418;51.45933468;7.33152330;2023-03-15T05:47:24;7.30;61.60
9544;DHT22;30418;51.45933468;7.33152330;2023-03-15T05:50:09;7.30;61.70
9544;DHT22;30418;51.45933468;7.33152330;2023-03-15T05:52:57;7.30;61.80
9544;DHT22;30418;51.45933468;7.33152330;2023-03-15T05:55:51;7.30;61.80
9544;DHT22;30418;51.45933468;7.33152330;2023-03-15T05:58:40;7.30;62.00
9544;DHT22;30418;51.45933468;7.33152330;2023-03-15T06:01:23;7.40;62.10
9544;DHT22;30418;51.45933468;7.33152330;2023-03-15T06:04:09;7.40;62.20
9544;DHT22;30418;51.45933468;7.33152330;2023-03-15T06:06:39;7.40;62.20
9544;DHT22;30418;51.45933468;7.33152330;2023-03-15T06:09:09;7.40;62.30
9544;DHT22;30418;51.45933468;7.33152330;2023-03-15T06:11:39;7.50;62.30
9544;DHT22;30418;51.45933468;7.33152330;2023-03-15T06:14:12;7.50;62.40
9544;DHT22;30418;51.45933468;7.33152330;2023-03-15T06:16:48;7.50;62.30
9544;DHT22;30418;51.45933468;7.33152330;2023-03-15T06:19:17;7.50;62.20
9544;DHT22;30418;51.45933468;7.33152330;2023-03-15T06:21:46;7.60;62.30
9544;DHT22;30418;51.45933468;7.33152330;2023-03-15T06:24:22;7.60;62.30
9544;DHT22;30418;51.45933468;7.33152330;2023-03-15T06:26:51;7.60;62.30
9544;DHT22;30418;51.45933468;7.33152330;2023-03-15T06:29:23;7.60;62.30
9544;DHT22;30418;51.45933468;7.33152330;2023-03-15T06:31:54;7.60;63.10
9544;DHT22;30418;51.45933468;7.33152330;2023-03-15T06:34:24;7.60;62.20
9544;DHT22;30418;51.45933468;7.33152330;2023-03-15T06:36:53;7.60;62.20
9544;DHT22;30418;51.45933468;7.33152330;2023-03-15T06:39:22;7.60;62.20
9544;DHT22;30418;51.45933468;7.33152330;2023-03-15T06:41:51;7.70;62.20
9544;DHT22;30418;51.45933468;7.33152330;2023-03-15T06:44:26;7.70;63.10
9544;DHT22;30418;51.45933468;7.33152330;2023-03-15T06:47:00;7.60;62.10
9544;DHT22;30418;51.45933468;7.33152330;2023-03-15T06:49:29;7.60;62.10
9544;DHT22;30418;51.45933468;7.33152330;2023-03-15T06:51:59;7.70;62.20
9544;DHT22;30418;51.45933468;7.33152330;2023-03-15T06:54:28;7.60;62.10
9544;DHT22;30418;51.45933468;7.33152330;2023-03-15T06:56:58;7.70;62.30
9544;DHT22;30418;51.45933468;7.33152330;2023-03-15T06:59:28;7.70;62.30
9544;DHT22;30418;51.45933468;7.33152330;2023-03-15T07:01:56;7.70;62.30
9544;DHT22;30418;51.45933468;7.33152330;2023-03-15T07:04:25;7.70;62.20
9544;DHT22;30418;51.45933468;7.33152330;2023-03-15T07:06:54;7.70;62.30
9544;DHT22;30418;51.45933468;7.33152330;2023-03-15T07:09:22;7.70;62.40
9544;DHT22;30418;51.45933468;7.33152330;2023-03-15T07:11:51;7.60;62.40
9544;DHT22;30418;51.45933468;7.33152330;2023-03-15T07:14:19;7.70;62.50
9544;DHT22;30418;51.45933468;7.33152330;2023-03-15T07:16:50;7.70;62.60
9544;DHT22;30418;51.45933468;7.33152330;2023-03-15T07:19:18;7.70;62.70
9544;DHT22;30418;51.45933468;7.33152330;2023-03-15T07:21:46;7.70;62.60
9544;DHT22;30418;51.45933468;7.33152330;2023-03-15T07:24:15;7.80;62.60
9544;DHT22;30418;51.45933468;7.33152330;2023-03-15T07:26:44;7.80;62.60
9544;DHT22;30418;51.45933468;7.33152330;2023-03-15T07:29:12;7.70;62.40
9544;DHT22;30418;51.45933468;7.33152330;2023-03-15T07:31:41;7.70;62.30
9544;DHT22;30418;51.45933468;7.33152330;2023-03-15T07:34:11;7.70;62.20
9544;DHT22;30418;51.45933468;7.33152330;2023-03-15T07:36:39;7.70;62.00
9544;DHT22;30418;51.45933468;7.33152330;2023-03-15T07:39:08;7.70;61.90
9544;DHT22;30418;51.45933468;7.33152330;2023-03-15T07:41:37;7.70;61.80
9544;DHT22;30418;51.45933468;7.33152330;2023-03-15T07:44:14;7.70;61.80
9544;DHT22;30418;51.45933468;7.33152330;2023-03-15T07:46:42;7.60;61.80
9544;DHT22;30418;51.45933468;7.33152330;2023-03-15T07:49:12;7.60;62.00
9544;DHT22;30418;51.45933468;7.33152330;2023-03-15T07:51:41;7.60;62.00
9544;DHT22;30418;51.45933468;7.33152330;2023-03-15T07:54:09;7.60;61.90
9544;DHT22;30418;51.45933468;7.33152330;2023-03-15T07:56:38;7.60;62.00
9544;DHT22;30418;51.45933468;7.33152330;2023-03-15T07:59:07;7.60;61.90
9544;DHT22;30418;51.45933468;7.33152330;2023-03-15T08:01:36;7.60;61.70
9544;DHT22;30418;51.45933468;7.33152330;2023-03-15T08:04:04;7.60;62.40
9544;DHT22;30418;51.45933468;7.33152330;2023-03-15T08:06:34;7.60;61.50
9544;DHT22;30418;51.45933468;7.33152330;2023-03-15T08:09:03;7.60;61.50
9544;DHT22;30418;51.45933468;7.33152330;2023-03-15T08:11:33;7.60;62.20
9544;DHT22;30418;51.45933468;7.33152330;2023-03-15T08:14:06;7.60;61.30
9544;DHT22;30418;51.45933468;7.33152330;2023-03-15T08:16:35;7.60;60.50
9544;DHT22;30418;51.45933468;7.33152330;2023-03-15T08:19:03;7.60;61.20
9544;DHT22;30418;51.45933468;7.33152330;2023-03-15T08:21:34;7.60;61.00
9544;DHT22;30418;51.45933468;7.33152330;2023-03-15T08:24:03;7.60;61.20
9544;DHT22;30418;51.45933468;7.33152330;2023-03-15T08:26:32;7.60;61.50
9544;DHT22;30418;51.45933468;7.33152330;2023-03-15T08:29:00;7.60;61.60
9544;DHT22;30418;51.45933468;7.33152330;2023-03-15T08:31:30;7.60;61.60
9544;DHT22;30418;51.45933468;7.33152330;2023-03-15T08:33:59;7.60;61.50
9544;DHT22;30418;51.45933468;7.33152330;2023-03-15T08:36:27;7.70;61.20
9544;DHT22;30418;51.45933468;7.33152330;2023-03-15T08:38:57;7.70;60.90
9544;DHT22;30418;51.45933468;7.33152330;2023-03-15T08:41:26;7.70;60.70
9544;DHT22;30418;51.45933468;7.33152330;2023-03-15T08:43:54;7.70;60.60
9544;DHT22;30418;51.45933468;7.33152330;2023-03-15T08:46:23;7.70;60.60
9544;DHT22;30418;51.45933468;7.33152330;2023-03-15T08:48:52;7.70;60.70
9544;DHT22;30418;51.45933468;7.33152330;2023-03-15T08:51:21;7.70;60.60
9544;DHT22;30418;51.45933468;7.33152330;2023-03-15T08:53:51;7.80;60.70
9544;DHT22;30418;51.45933468;7.33152330;2023-03-15T08:56:21;7.80;60.50
9544;DHT22;30418;51.45933468;7.33152330;2023-03-15T08:58:50;7.80;60.60
9544;DHT22;30418;51.45933468;7.33152330;2023-03-15T09:01:18;7.80;60.70
9544;DHT22;30418;51.45933468;7.33152330;2023-03-15T09:03:47;7.90;61.30
9544;DHT22;30418;51.45933468;7.33152330;2023-03-15T09:06:16;7.90;61.20
9544;DHT22;30418;51.45933468;7.33152330;2023-03-15T09:08:45;8.00;61.40
9544;DHT22;30418;51.45933468;7.33152330;2023-03-15T09:11:33;8.00;61.40
9544;DHT22;30418;51.45933468;7.33152330;2023-03-15T09:14:02;8.10;61.20
9544;DHT22;30418;51.45933468;7.33152330;2023-03-15T09:16:31;8.20;61.20
9544;DHT22;30418;51.45933468;7.33152330;2023-03-15T09:18:59;8.20;61.10
9544;DHT22;30418;51.45933468;7.33152330;2023-03-15T09:21:28;8.30;61.00
9544;DHT22;30418;51.45933468;7.33152330;2023-03-15T09:23:57;8.30;60.70
9544;DHT22;30418;51.45933468;7.33152330;2023-03-15T09:26:26;8.30;60.60
9544;DHT22;30418;51.45933468;7.33152330;2023-03-15T09:28:56;8.40;60.70
9544;DHT22;30418;51.45933468;7.33152330;2023-03-15T09:31:25;8.40;60.40
9544;DHT22;30418;51.45933468;7.33152330;2023-03-15T09:33:54;8.50;60.40
9544;DHT22;30418;51.45933468;7.33152330;2023-03-15T09:36:24;8.50;60.20
9544;DHT22;30418;51.45933468;7.33152330;2023-03-15T09:38:53;8.50;60.00
9544;DHT22;30418;51.45933468;7.33152330;2023-03-15T09:41:36;8.50;59.80
9544;DHT22;30418;51.45933468;7.33152330;2023-03-15T09:44:17;8.50;59.70
9544;DHT22;30418;51.45933468;7.33152330;2023-03-15T09:47:01;8.50;59.70
9544;DHT22;30418;51.45933468;7.33152330;2023-03-15T09:49:40;8.50;59.70
9544;DHT22;30418;51.45933468;7.33152330;2023-03-15T09:52:20;8.50;59.90
9544;DHT22;30418;51.45933468;7.33152330;2023-03-15T09:54:57;8.50;59.80
9544;DHT22;30418;51.45933468;7.33152330;2023-03-15T09:57:36;8.50;59.50
9544;DHT22;30418;51.45933468;7.33152330;2023-03-15T10:00:14;8.50;59.20
9544;DHT22;30418;51.45933468;7.33152330;2023-03-15T10:02:56;8.50;58.90
9544;DHT22;30418;51.45933468;7.33152330;2023-03-15T10:05:34;8.50;59.90
9544;DHT22;30418;51.45933468;7.33152330;2023-03-15T10:08:09;8.50;59.30
9544;DHT22;30418;51.45933468;7.33152330;2023-03-15T10:10:45;8.50;59.40
9544;DHT22;30418;51.45933468;7.33152330;2023-03-15T10:13:37;8.50;59.00
9544;DHT22;30418;51.45933468;7.33152330;2023-03-15T10:16:22;8.50;58.80
9544;DHT22;30418;51.45933468;7.33152330;2023-03-15T10:19:02;8.50;58.80
9544;DHT22;30418;51.45933468;7.33152330;2023-03-15T10:21:39;8.50;59.00
9544;DHT22;30418;51.45933468;7.33152330;2023-03-15T10:24:19;8.50;58.90
9544;DHT22;30418;51.45933468;7.33152330;2023-03-15T10:26:52;8.50;58.90
9544;DHT22;30418;51.45933468;7.33152330;2023-03-15T10:29:24;8.60;59.30
9544;DHT22;30418;51.45933468;7.33152330;2023-03-15T10:31:55;8.70;59.40
9544;DHT22;30418;51.45933468;7.33152330;2023-03-15T10:34:24;8.70;59.40
9544;DHT22;30418;51.45933468;7.33152330;2023-03-15T10:36:54;8.80;59.20
9544;DHT22;30418;51.45933468;7.33152330;2023-03-15T10:39:24;8.80;59.00
9544;DHT22;30418;51.45933468;7.33152330;2023-03-15T10:41:52;8.80;58.90
9544;DHT22;30418;51.45933468;7.33152330;2023-03-15T10:44:23;8.90;58.70
9544;DHT22;30418;51.45933468;7.33152330;2023-03-15T10:47:03;8.90;58.40
9544;DHT22;30418;51.45933468;7.33152330;2023-03-15T10:49:48;8.90;58.20
9544;DHT22;30418;51.45933468;7.33152330;2023-03-15T10:52:31;8.80;58.20
9544;DHT22;30418;51.45933468;7.33152330;2023-03-15T10:55:09;8.90;58.40
9544;DHT22;30418;51.45933468;7.33152330;2023-03-15T10:57:40;8.90;58.30
9544;DHT22;30418;51.45933468;7.33152330;2023-03-15T11:00:26;9.00;58.50
9544;DHT22;30418;51.45933468;7.33152330;2023-03-15T11:03:03;9.10;58.40
9544;DHT22;30418;51.45933468;7.33152330;2023-03-15T11:05:40;9.10;58.20
9544;DHT22;30418;51.45933468;7.33152330;2023-03-15T11:08:12;9.20;57.90
9544;DHT22;30418;51.45933468;7.33152330;2023-03-15T11:10:42;9.20;57.70
9544;DHT22;30418;51.45933468;7.33152330;2023-03-15T11:13:16;9.20;57.70
9544;DHT22;30418;51.45933468;7.33152330;2023-03-15T11:15:54;9.30;57.50
9544;DHT22;30418;51.45933468;7.33152330;2023-03-15T11:18:32;9.30;57.20
9544;DHT22;30418;51.45933468;7.33152330;2023-03-15T11:21:06;9.30;57.00
9544;DHT22;30418;51.45933468;7.33152330;2023-03-15T11:23:38;9.30;57.00
9544;DHT22;30418;51.45933468;7.33152330;2023-03-15T11:26:16;9.30;56.90
9544;DHT22;30418;51.45933468;7.33152330;2023-03-15T11:29:00;9.30;56.70
9544;DHT22;30418;51.45933468;7.33152330;2023-03-15T11:31:33;9.20;56.90
9544;DHT22;30418;51.45933468;7.33152330;2023-03-15T11:34:07;9.20;57.00
9544;DHT22;30418;51.45933468;7.33152330;2023-03-15T11:36:42;9.30;57.00
9544;DHT22;30418;51.45933468;7.33152330;2023-03-15T11:39:27;9.30;57.00
9544;DHT22;30418;51.45933468;7.33152330;2023-03-15T11:42:05;9.30;56.60
9544;DHT22;30418;51.45933468;7.33152330;2023-03-15T11:44:40;9.40;56.80
9544;DHT22;30418;51.45933468;7.33152330;2023-03-15T11:47:17;9.40;56.60
9544;DHT22;30418;51.45933468;7.33152330;2023-03-15T11:49:53;9.40;56.40
9544;DHT22;30418;51.45933468;7.33152330;2023-03-15T11:52:25;9.40;56.40
9544;DHT22;30418;51.45933468;7.33152330;2023-03-15T11:54:57;9.50;56.30
9544;DHT22;30418;51.45933468;7.33152330;2023-03-15T11:57:41;9.50;56.10
9544;DHT22;30418;51.45933468;7.33152330;2023-03-15T12:03:38;9.50;55.50
9544;DHT22;30418;51.45933468;7.33152330;2023-03-15T12:06:33;9.40;55.20
9544;DHT22;30418;51.45933468;7.33152330;2023-03-15T12:12:37;9.50;55.60
9544;DHT22;30418;51.45933468;7.33152330;2023-03-15T12:15:43;9.50;55.50
9544;DHT22;30418;51.45933468;7.33152330;2023-03-15T12:18:16;9.50;55.30
9544;DHT22;30418;51.45933468;7.33152330;2023-03-15T12:20:56;9.60;56.00
9544;DHT22;30418;51.45933468;7.33152330;2023-03-15T12:23:38;9.60;56.00
9544;DHT22;30418;51.45933468;7.33152330;2023-03-15T12:26:15;9.60;56.10
9544;DHT22;30418;51.45933468;7.33152330;2023-03-15T12:29:00;9.70;56.50
9544;DHT22;30418;51.45933468;7.33152330;2023-03-15T12:31:54;9.80;56.80
9544;DHT22;30418;51.45933468;7.33152330;2023-03-15T12:34:29;9.80;56.20
9544;DHT22;30418;51.45933468;7.33152330;2023-03-15T12:37:05;9.90;56.30
9544;DHT22;30418;51.45933468;7.33152330;2023-03-15T12:39:39;10.00;55.40
9544;DHT22;30418;51.45933468;7.33152330;2023-03-15T12:45:40;10.20;55.40
9544;DHT22;30418;51.45933468;7.33152330;2023-03-15T12:48:28;10.30;55.30
9544;DHT22;30418;51.45933468;7.33152330;2023-03-15T12:51:10;10.30;55.60
9544;DHT22;30418;51.45933468;7.33152330;2023-03-15T12:53:46;10.40;55.20
9544;DHT22;30418;51.45933468;7.33152330;2023-03-15T12:56:32;10.50;55.50
9544;DHT22;30418;51.45933468;7.33152330;2023-03-15T12:59:27;10.50;55.30
9544;DHT22;30418;51.45933468;7.33152330;2023-03-15T13:02:09;10.60;55.10
9544;DHT22;30418;51.45933468;7.33152330;2023-03-15T13:05:22;10.60;54.50
9544;DHT22;30418;51.45933468;7.33152330;2023-03-15T13:08:04;10.70;54.10
9544;DHT22;30418;51.45933468;7.33152330;2023-03-15T13:10:44;10.70;54.10
9544;DHT22;30418;51.45933468;7.33152330;2023-03-15T13:13:28;10.80;54.30
9544;DHT22;30418;51.45933468;7.33152330;2023-03-15T13:16:15;10.80;53.90
9544;DHT22;30418;51.45933468;7.33152330;2023-03-15T13:18:55;10.80;53.70
9544;DHT22;30418;51.45933468;7.33152330;2023-03-15T13:21:32;10.90;53.10
9544;DHT22;30418;51.45933468;7.33152330;2023-03-15T13:24:10;10.80;53.10
9544;DHT22;30418;51.45933468;7.33152330;2023-03-15T13:26:50;10.80;53.00
9544;DHT22;30418;51.45933468;7.33152330;2023-03-15T13:29:26;10.80;52.50
9544;DHT22;30418;51.45933468;7.33152330;2023-03-15T13:32:01;10.80;52.50
9544;DHT22;30418;51.45933468;7.33152330;2023-03-15T13:34:39;10.90;52.60
9544;DHT22;30418;51.45933468;7.33152330;2023-03-15T13:37:14;11.00;52.80
9544;DHT22;30418;51.45933468;7.33152330;2023-03-15T13:39:53;11.00;52.40
9544;DHT22;30418;51.45933468;7.33152330;2023-03-15T13:42:24;11.10;51.80
9544;DHT22;30418;51.45933468;7.33152330;2023-03-15T13:45:09;11.10;52.50
9544;DHT22;30418;51.45933468;7.33152330;2023-03-15T13:47:40;11.20;52.00
9544;DHT22;30418;51.45933468;7.33152330;2023-03-15T13:50:13;11.20;52.50
9544;DHT22;30418;51.45933468;7.33152330;2023-03-15T13:52:44;11.30;52.10
9544;DHT22;30418;51.45933468;7.33152330;2023-03-15T13:55:14;11.40;52.30
9544;DHT22;30418;51.45933468;7.33152330;2023-03-15T13:57:47;11.40;52.10
9544;DHT22;30418;51.45933468;7.33152330;2023-03-15T14:00:18;11.50;52.20
9544;DHT22;30418;51.45933468;7.33152330;2023-03-15T14:02:51;11.50;51.70
9544;DHT22;30418;51.45933468;7.33152330;2023-03-15T14:05:24;11.60;52.00
9544;DHT22;30418;51.45933468;7.33152330;2023-03-15T14:07:58;11.60;51.90
9544;DHT22;30418;51.45933468;7.33152330;2023-03-15T14:10:31;11.70;51.50
9544;DHT22;30418;51.45933468;7.33152330;2023-03-15T14:13:15;11.70;51.60
9544;DHT22;30418;51.45933468;7.33152330;2023-03-15T14:15:49;11.70;51.30
9544;DHT22;30418;51.45933468;7.33152330;2023-03-15T14:18:22;11.80;52.00
9544;DHT22;30418;51.45933468;7.33152330;2023-03-15T14:20:56;11.80;51.90
9544;DHT22;30418;51.45933468;7.33152330;2023-03-15T14:23:30;11.90;51.90
9544;DHT22;30418;51.45933468;7.33152330;2023-03-15T14:26:10;12.00;51.70
9544;DHT22;30418;51.45933468;7.33152330;2023-03-15T14:28:41;12.00;51.10
9544;DHT22;30418;51.45933468;7.33152330;2023-03-15T14:31:21;12.10;51.60
9544;DHT22;30418;51.45933468;7.33152330;2023-03-15T14:33:53;12.10;51.20
9544;DHT22;30418;51.45933468;7.33152330;2023-03-15T14:36:28;12.10;51.10